Terminal Aerodrome Forecast
Issued by NWS

Home | Current Version | Previous Version | Text Only | Print | Product List | Glossary On
Versions: 1 2 3 4 5 6 7 8 9 10 11 12 13 14 15 16
862
FTUS42 KTAE 240202 AAA
TAFABY
TAF AMD
KABY 240202Z 2402/2424 04006KT P6SM SCT025 BKN040
     FM240600 04003KT P6SM BKN040=

USA.gov is the U.S. government's official web portal to all federal, state and local government web resources and services.